Time;durP1;ratioP1;P1;durP2;ratioP2;P2;SDS_P1;SDS_P2;PMS_P1;PMS_P2;Temp;Humidity;BMP_temperature;BMP_pressure;BME280_temperature;BME280_humidity;BME280_pressure;Samples;Min_cycle;Max_cycle;Signal;HPM_P1;HPM_P2
2021/11/24 00:00:47;;;;;;;13.28;8.25;;;;;;;2.49;100.00;101737.05;1750971;80;21931;-71
2021/11/24 00:03:14;;;;;;;15.10;8.98;;;;;;;2.54;100.00;101749.95;1758259;80;20976;-71
2021/11/24 00:05:41;;;;;;;14.65;8.83;;;;;;;2.58;100.00;101738.53;1761851;80;21421;-70
2021/11/24 00:08:08;;;;;;;14.58;8.75;;;;;;;2.65;100.00;101746.55;1752044;80;21078;-72
2021/11/24 00:10:37;;;;;;;15.13;8.75;;;;;;;2.72;100.00;101744.43;1761086;80;21055;-71
2021/11/24 00:13:04;;;;;;;13.48;8.80;;;;;;;2.82;100.00;101749.00;1763674;80;21505;-72
2021/11/24 00:15:32;;;;;;;14.65;8.48;;;;;;;2.90;100.00;101751.75;1760951;80;21442;-72
2021/11/24 00:17:59;;;;;;;16.60;8.15;;;;;;;2.96;100.00;101749.59;1758657;80;21001;-62
2021/11/24 00:20:26;;;;;;;13.50;8.50;;;;;;;3.02;100.00;101747.05;1749977;80;20997;-71
2021/11/24 00:22:53;;;;;;;14.33;7.95;;;;;;;3.09;99.68;101752.86;1763318;80;21547;-61
2021/11/24 00:25:20;;;;;;;13.10;8.43;;;;;;;3.17;99.32;101761.33;1756698;80;21259;-60
2021/11/24 00:27:47;;;;;;;12.82;7.85;;;;;;;3.19;98.39;101762.23;1754934;80;20965;-61
2021/11/24 00:30:14;;;;;;;14.03;8.48;;;;;;;3.18;97.83;101768.41;1770593;80;20885;-60
2021/11/24 00:32:41;;;;;;;12.60;8.00;;;;;;;3.13;97.25;101773.67;1755899;80;21041;-60
2021/11/24 00:35:09;;;;;;;17.48;8.40;;;;;;;3.09;96.76;101770.09;1764299;80;21572;-61
2021/11/24 00:37:36;;;;;;;12.82;8.55;;;;;;;3.03;96.66;101754.12;1751679;80;21499;-61
2021/11/24 00:40:05;;;;;;;13.08;8.48;;;;;;;3.03;96.81;101747.91;1761633;80;21021;-60
2021/11/24 00:42:32;;;;;;;16.55;8.53;;;;;;;3.06;97.03;101750.17;1762258;80;21101;-62
2021/11/24 00:45:00;;;;;;;13.83;8.85;;;;;;;3.13;97.09;101742.74;1760471;80;20958;-62
2021/11/24 00:47:26;;;;;;;13.83;9.03;;;;;;;3.19;96.85;101745.00;1754236;80;21020;-61
2021/11/24 00:49:55;;;;;;;15.08;8.28;;;;;;;3.24;96.52;101742.00;1752771;80;21132;-61
2021/11/24 00:52:22;;;;;;;15.23;8.25;;;;;;;3.25;96.01;101741.13;1763441;80;21595;-61
2021/11/24 00:54:49;;;;;;;13.43;8.93;;;;;;;3.29;95.82;101738.95;1750229;80;20966;-61
2021/11/24 00:57:16;;;;;;;13.83;7.90;;;;;;;3.37;95.70;101747.00;1758077;80;21056;-61
2021/11/24 00:59:43;;;;;;;15.80;8.25;;;;;;;3.42;95.19;101744.83;1769662;80;21042;-61
2021/11/24 01:02:10;;;;;;;12.23;7.95;;;;;;;3.50;94.87;101751.99;1751000;80;21476;-62
2021/11/24 01:04:36;;;;;;;14.93;8.23;;;;;;;3.53;93.91;101750.70;1764158;80;22121;-61
2021/11/24 01:07:03;;;;;;;13.50;8.43;;;;;;;3.53;93.17;101752.02;1761825;80;21030;-60
2021/11/24 01:09:30;;;;;;;14.73;9.03;;;;;;;3.52;92.76;101750.24;1755762;80;21037;-61
2021/11/24 01:11:57;;;;;;;14.87;8.28;;;;;;;3.53;92.33;101748.05;1754608;80;21015;-60
2021/11/24 01:14:24;;;;;;;14.47;8.78;;;;;;;3.51;92.06;101748.01;1756575;80;21234;-60
2021/11/24 01:16:51;;;;;;;14.47;8.45;;;;;;;3.52;91.72;101751.57;1754476;80;21589;-61
2021/11/24 01:19:18;;;;;;;13.48;8.43;;;;;;;3.48;91.25;101751.09;1750114;80;20985;-61
2021/11/24 01:21:45;;;;;;;15.60;9.25;;;;;;;3.42;91.27;101749.25;1754689;80;21103;-61
2021/11/24 01:24:12;;;;;;;14.30;8.60;;;;;;;3.40;91.05;101746.57;1752133;80;21500;-60
2021/11/24 01:26:39;;;;;;;15.08;9.08;;;;;;;3.38;90.87;101753.62;1749376;80;21139;-60
2021/11/24 01:29:06;;;;;;;17.73;9.18;;;;;;;3.35;90.83;101749.62;1755758;80;21069;-61
2021/11/24 01:31:34;;;;;;;16.37;9.45;;;;;;;3.31;90.71;101753.11;1752935;80;21431;-60
2021/11/24 01:34:01;;;;;;;14.13;8.65;;;;;;;3.27;90.46;101752.63;1758230;80;21123;-61
2021/11/24 01:36:27;;;;;;;14.93;8.53;;;;;;;3.21;90.44;101755.22;1750163;80;22293;-61
2021/11/24 01:38:55;;;;;;;13.95;8.85;;;;;;;3.14;90.29;101759.09;1767694;80;21128;-60
2021/11/24 01:41:22;;;;;;;16.23;9.30;;;;;;;3.10;90.38;101758.61;1757940;80;21294;-61
2021/11/24 01:43:48;;;;;;;15.75;8.98;;;;;;;3.06;90.44;101758.13;1758528;80;21005;-61
2021/11/24 01:46:15;;;;;;;14.30;8.95;;;;;;;3.03;90.50;101766.05;1759450;80;21416;-61
2021/11/24 01:48:42;;;;;;;16.45;9.50;;;;;;;3.00;90.50;101766.01;1758547;80;21057;-59
2021/11/24 01:51:09;;;;;;;16.60;9.38;;;;;;;2.97;90.46;101765.94;1752427;80;21104;-60
2021/11/24 01:53:35;;;;;;;12.60;8.13;;;;;;;2.97;90.59;101767.27;1765365;80;21131;-60
2021/11/24 01:56:04;;;;;;;15.90;8.95;;;;;;;2.97;90.56;101766.84;1767151;80;21060;-61
2021/11/24 01:58:31;;;;;;;19.00;9.73;;;;;;;2.98;90.38;101769.04;1759128;80;21075;-61
2021/11/24 02:00:58;;;;;;;14.90;9.00;;;;;;;2.93;90.29;101765.45;1757823;80;21549;-60
2021/11/24 02:03:26;;;;;;;20.12;9.78;;;;;;;2.84;90.05;101765.80;1762072;80;21813;-61
2021/11/24 02:05:53;;;;;;;16.05;9.35;;;;;;;2.73;90.14;101776.66;1766227;80;21085;-62
2021/11/24 02:08:19;;;;;;;17.67;10.25;;;;;;;2.63;90.33;101773.44;1756913;80;21036;-60
2021/11/24 02:10:46;;;;;;;15.38;9.28;;;;;;;2.56;90.60;101765.84;1757134;80;21061;-61
2021/11/24 02:13:13;;;;;;;16.35;9.63;;;;;;;2.50;90.74;101779.87;1766668;79;21589;-60
2021/11/24 02:15:40;;;;;;;15.10;9.18;;;;;;;2.40;90.94;101776.64;1758550;80;21846;-60
2021/11/24 02:18:07;;;;;;;15.93;9.80;;;;;;;2.33;91.24;101770.80;1761050;80;21083;-62
2021/11/24 02:20:39;;;;;;;15.75;9.23;;;;;;;2.25;91.42;101775.52;1754752;80;21084;-61
2021/11/24 02:23:07;;;;;;;21.00;9.28;;;;;;;2.19;91.82;101772.78;1763748;80;21014;-60
2021/11/24 02:25:35;;;;;;;19.17;9.83;;;;;;;2.14;92.14;101770.50;1760435;80;21867;-60
2021/11/24 02:28:02;;;;;;;21.10;9.90;;;;;;;2.09;92.30;101771.74;1771654;80;21072;-60
2021/11/24 02:30:29;;;;;;;16.25;9.93;;;;;;;2.08;92.67;101767.73;1767237;79;21000;-60
2021/11/24 02:32:57;;;;;;;17.12;10.10;;;;;;;2.05;92.84;101769.01;1767218;80;21100;-61
2021/11/24 02:35:24;;;;;;;16.30;9.45;;;;;;;2.00;93.00;101774.25;1766139;79;21040;-60
2021/11/24 02:37:51;;;;;;;20.48;10.28;;;;;;;1.95;93.37;101779.45;1763486;79;21154;-59
2021/11/24 02:40:18;;;;;;;15.25;10.25;;;;;;;1.96;93.68;101785.20;1764179;80;20938;-60
2021/11/24 02:42:45;;;;;;;18.17;10.00;;;;;;;1.96;93.86;101780.32;1739270;80;21103;-60
2021/11/24 02:45:12;;;;;;;14.70;8.88;;;;;;;2.02;94.17;101783.52;1773801;80;21009;-60
2021/11/24 02:47:38;;;;;;;16.62;9.30;;;;;;;2.05;94.18;101791.08;1777500;80;21100;-60
2021/11/24 02:50:07;;;;;;;16.80;10.58;;;;;;;2.05;94.22;101783.14;1750977;80;21107;-59
2021/11/24 02:52:34;;;;;;;17.75;9.05;;;;;;;2.05;94.25;101790.17;1752641;80;21477;-60
2021/11/24 02:55:04;;;;;;;20.25;10.45;;;;;;;2.07;94.39;101791.09;1752252;80;21029;-60
2021/11/24 02:57:38;;;;;;;17.25;9.73;;;;;;;2.07;94.42;101791.09;1760586;80;21029;-60
2021/11/24 03:00:16;;;;;;;17.35;8.43;;;;;;;2.06;94.58;101785.34;1758904;80;21056;-60
2021/11/24 03:02:44;;;;;;;21.97;11.53;;;;;;;2.08;94.74;101791.12;1755324;80;21076;-60
2021/11/24 03:05:10;;;;;;;18.82;9.63;;;;;;;2.08;94.75;101808.74;1764841;80;21081;-60
2021/11/24 03:07:38;;;;;;;21.87;10.10;;;;;;;2.08;94.87;101800.80;1768326;80;21350;-60
2021/11/24 03:10:07;;;;;;;18.50;9.68;;;;;;;2.08;95.04;101802.13;1755975;80;21083;-61
2021/11/24 03:12:35;;;;;;;18.35;11.12;;;;;;;2.10;95.11;101805.69;1755633;80;21032;-60
2021/11/24 03:15:03;;;;;;;17.32;10.03;;;;;;;2.12;95.24;101810.61;1761525;80;21068;-61
2021/11/24 03:17:31;;;;;;;19.62;9.70;;;;;;;2.15;95.25;101809.33;1767476;80;21896;-60
2021/11/24 03:19:59;;;;;;;17.10;9.43;;;;;;;2.18;95.23;101810.70;1754404;80;21030;-60
2021/11/24 03:22:26;;;;;;;17.80;9.63;;;;;;;2.20;95.21;101805.00;1763444;80;21048;-60
2021/11/24 03:24:56;;;;;;;17.42;9.85;;;;;;;2.22;95.16;101812.52;1757797;80;21127;-61
2021/11/24 03:27:38;;;;;;;20.75;11.00;;;;;;;2.26;95.11;101812.16;1762579;80;21012;-61
2021/11/24 03:30:12;;;;;;;17.17;9.70;;;;;;;2.27;95.03;101812.16;1754137;80;21379;-60
2021/11/24 03:32:39;;;;;;;17.62;10.60;;;;;;;2.28;94.96;101817.04;1756396;80;21048;-61
2021/11/24 03:35:07;;;;;;;20.05;10.88;;;;;;;2.25;94.94;101819.19;1761752;80;21151;-60
2021/11/24 03:37:34;;;;;;;21.97;11.35;;;;;;;2.25;95.06;101824.48;1759278;80;21497;-60
2021/11/24 03:40:05;;;;;;;18.45;10.60;;;;;;;2.26;95.11;101826.26;1771057;79;21078;-60
2021/11/24 03:42:33;;;;;;;18.62;10.65;;;;;;;2.26;95.20;101834.20;1757240;81;21766;-60
2021/11/24 03:45:00;;;;;;;20.57;10.93;;;;;;;2.26;95.26;101826.26;1742989;79;21088;-60
2021/11/24 03:47:27;;;;;;;18.98;11.33;;;;;;;2.25;95.24;101827.13;1769706;79;20984;-60
2021/11/24 03:49:54;;;;;;;18.85;9.83;;;;;;;2.25;95.27;101828.45;1768047;79;21682;-60
2021/11/24 03:52:21;;;;;;;19.52;11.00;;;;;;;2.24;95.36;101843.87;1775365;79;21057;-60
2021/11/24 03:54:48;;;;;;;22.07;11.45;;;;;;;2.25;95.38;101848.30;1773788;79;21124;-60
2021/11/24 03:57:15;;;;;;;18.80;12.07;;;;;;;2.23;95.41;101852.67;1770451;79;21100;-60
2021/11/24 03:59:42;;;;;;;18.80;10.98;;;;;;;2.22;95.40;101850.90;1770190;79;21705;-60
2021/11/24 04:02:08;;;;;;;16.95;10.75;;;;;;;2.22;95.53;101850.90;1770335;79;20986;-60
2021/11/24 04:04:35;;;;;;;15.50;9.55;;;;;;;2.23;95.51;101854.00;1773227;79;21045;-60
2021/11/24 04:07:03;;;;;;;17.77;10.98;;;;;;;2.25;95.54;101860.66;1770562;79;21088;-61
2021/11/24 04:09:30;;;;;;;19.05;11.35;;;;;;;2.26;95.59;101859.34;1767469;79;21471;-60
2021/11/24 04:11:57;;;;;;;17.55;10.43;;;;;;;2.31;95.71;101870.44;1768289;79;21015;-61
2021/11/24 04:14:23;;;;;;;20.25;10.93;;;;;;;2.28;95.44;101860.25;1774900;79;21032;-61
2021/11/24 04:16:50;;;;;;;23.98;10.58;;;;;;;2.27;95.54;101855.83;1771891;79;21025;-60
2021/11/24 04:19:17;;;;;;;17.95;10.55;;;;;;;2.28;95.59;101856.73;1770886;79;21452;-60
2021/11/24 04:21:44;;;;;;;21.30;11.38;;;;;;;2.26;95.35;101858.02;1767559;79;21074;-60
2021/11/24 04:24:10;;;;;;;22.13;10.98;;;;;;;2.23;95.33;101862.39;1768856;79;21018;-60
2021/11/24 04:26:37;;;;;;;19.75;10.55;;;;;;;2.19;95.30;101858.79;1774731;79;21050;-60
2021/11/24 04:29:04;;;;;;;20.85;11.53;;;;;;;2.20;95.46;101867.19;1768807;79;21436;-60
2021/11/24 04:31:31;;;;;;;22.00;11.45;;;;;;;2.21;95.48;101858.38;1770449;79;21177;-60
2021/11/24 04:33:58;;;;;;;20.52;11.65;;;;;;;2.20;95.33;101859.66;1770383;79;21011;-60
2021/11/24 04:36:25;;;;;;;19.90;11.48;;;;;;;2.16;95.24;101864.03;1771209;79;21095;-60
2021/11/24 04:38:52;;;;;;;20.17;10.75;;;;;;;2.13;95.25;101872.80;1771053;79;21573;-61
2021/11/24 04:41:19;;;;;;;19.57;11.25;;;;;;;2.10;95.22;101869.19;1773892;79;20879;-60
2021/11/24 04:43:48;;;;;;;17.37;10.53;;;;;;;2.06;95.26;101862.97;1774512;79;21155;-61
2021/11/24 04:46:16;;;;;;;20.35;11.70;;;;;;;2.05;95.34;101872.19;1771432;79;21492;-60
2021/11/24 04:48:43;;;;;;;21.42;11.93;;;;;;;2.02;95.35;101868.17;1768430;79;21103;-61
2021/11/24 04:51:10;;;;;;;18.27;11.15;;;;;;;1.99;95.34;101872.55;1757663;80;21074;-61
2021/11/24 04:53:37;;;;;;;22.02;11.20;;;;;;;1.98;95.32;101883.98;1751492;81;21547;-60
2021/11/24 04:56:05;;;;;;;21.30;11.43;;;;;;;1.95;95.33;101883.94;1753535;81;21118;-61
2021/11/24 04:58:36;;;;;;;23.67;11.85;;;;;;;1.94;95.46;101895.38;1752523;81;21508;-61
2021/11/24 05:01:01;;;;;;;26.40;12.98;;;;;;;1.91;95.54;101897.97;1727826;82;21094;-60
2021/11/24 05:03:28;;;;;;;20.30;11.15;;;;;;;1.88;95.76;101907.59;1749448;80;21476;-62
2021/11/24 05:05:55;;;;;;;19.65;10.85;;;;;;;1.83;95.97;101908.39;1755329;80;21096;-61
2021/11/24 05:08:22;;;;;;;19.20;11.28;;;;;;;1.75;96.18;101906.45;1763288;80;21136;-61
2021/11/24 05:10:50;;;;;;;19.95;10.88;;;;;;;1.69;96.35;101902.84;1767386;80;21008;-60
2021/11/24 05:13:17;;;;;;;19.77;11.28;;;;;;;1.69;96.63;101902.84;1734774;82;21276;-61
2021/11/24 05:15:45;;;;;;;22.73;11.22;;;;;;;1.69;96.71;101912.09;1771055;80;21032;-61
2021/11/24 05:18:21;;;;;;;17.40;9.60;;;;;;;1.67;96.60;101915.13;1757112;80;20933;-61
2021/11/24 05:20:44;;;;;;;19.57;10.15;;;;;;;1.66;96.58;101918.64;1769441;80;22107;-61
2021/11/24 05:23:14;;;;;;;20.70;10.63;;;;;;;1.66;96.52;101928.31;1744413;81;21481;-60
2021/11/24 05:25:39;;;;;;;20.65;10.72;;;;;;;1.68;96.56;101938.07;1729418;81;21627;-62
2021/11/24 05:28:06;;;;;;;20.08;10.63;;;;;;;1.76;96.72;101947.45;1764606;80;20998;-61
2021/11/24 05:30:34;;;;;;;18.25;9.48;;;;;;;1.82;96.15;101946.70;1757259;80;20956;-61
2021/11/24 05:33:01;;;;;;;18.17;9.68;;;;;;;1.89;95.92;101947.31;1774089;80;21523;-60
2021/11/24 05:35:28;;;;;;;19.32;10.85;;;;;;;1.96;95.53;101946.97;1739370;81;21046;-62
2021/11/24 05:37:55;;;;;;;21.48;10.93;;;;;;;2.06;94.79;101952.02;1770162;80;21370;-59
2021/11/24 05:40:22;;;;;;;18.65;10.63;;;;;;;2.12;94.49;101946.42;1765674;80;21044;-60
2021/11/24 05:42:49;;;;;;;15.48;9.25;;;;;;;2.20;93.89;101953.61;1747229;80;21484;-60
2021/11/24 05:47:55;;;;;;;16.35;9.98;;;;;;;2.27;93.07;101963.02;1748816;81;21033;-61
2021/11/24 05:50:22;;;;;;;21.37;10.85;;;;;;;2.28;92.87;101958.19;1735191;81;21121;-61
2021/11/24 05:52:49;;;;;;;23.25;11.57;;;;;;;2.29;92.75;101965.27;1743933;81;21090;-60
2021/11/24 05:55:16;;;;;;;20.15;10.75;;;;;;;2.32;92.74;101972.37;1753524;80;21455;-61
2021/11/24 05:57:43;;;;;;;19.45;11.63;;;;;;;2.40;92.69;101983.11;1743249;81;21511;-70
2021/11/24 06:00:11;;;;;;;17.82;10.70;;;;;;;2.47;92.60;101985.00;1737123;81;21050;-71
2021/11/24 06:02:41;;;;;;;23.37;11.60;;;;;;;2.56;92.63;101982.55;1744128;81;20986;-71
2021/11/24 06:05:09;;;;;;;22.07;11.95;;;;;;;2.69;92.47;101989.36;1743520;81;21130;-71
2021/11/24 06:07:35;;;;;;;30.75;12.33;;;;;;;2.76;92.14;101993.89;1740670;81;21041;-72
2021/11/24 06:10:04;;;;;;;20.25;11.93;;;;;;;2.85;91.88;101998.46;1744634;81;21509;-70
2021/11/24 06:12:32;;;;;;;27.20;12.55;;;;;;;2.92;91.50;102011.39;1744738;81;20974;-71
2021/11/24 06:14:59;;;;;;;21.80;11.00;;;;;;;2.95;91.03;102007.46;1747089;81;21230;-71
2021/11/24 06:17:26;;;;;;;20.82;10.72;;;;;;;3.01;90.79;102006.27;1745770;81;21065;-71
2021/11/24 06:19:53;;;;;;;27.98;12.85;;;;;;;3.06;90.59;102011.61;1760790;81;22094;-70
2021/11/24 06:22:19;;;;;;;22.22;12.10;;;;;;;3.10;90.42;102013.02;1756251;81;21125;-70
2021/11/24 06:24:48;;;;;;;28.95;13.32;;;;;;;3.20;90.40;102005.20;1754466;81;21150;-71
2021/11/24 06:27:15;;;;;;;26.02;12.82;;;;;;;3.27;90.04;102009.76;1750187;81;21024;-71
2021/11/24 06:29:42;;;;;;;29.75;13.15;;;;;;;3.35;89.80;102010.76;1750400;81;21076;-71
2021/11/24 06:32:08;;;;;;;32.60;13.70;;;;;;;3.47;89.45;102014.48;1752613;81;21079;-71
2021/11/24 06:34:36;;;;;;;28.13;13.60;;;;;;;3.55;88.95;102024.33;1745288;81;21067;-71
2021/11/24 06:37:03;;;;;;;30.15;14.55;;;;;;;3.60;88.44;102032.34;1754373;81;21496;-72
2021/11/24 06:39:30;;;;;;;26.42;13.35;;;;;;;3.63;88.19;102029.72;1749745;81;21021;-72
2021/11/24 06:41:59;;;;;;;24.18;12.23;;;;;;;3.71;88.01;102033.39;1745498;81;21081;-73
2021/11/24 06:44:26;;;;;;;22.65;11.53;;;;;;;3.73;87.32;102030.33;1753961;81;21498;-72
2021/11/24 06:46:53;;;;;;;19.07;9.93;;;;;;;3.73;87.04;102030.33;1743886;81;21097;-72
2021/11/24 06:49:20;;;;;;;17.60;9.98;;;;;;;3.73;86.74;102026.34;1750576;81;21100;-72
2021/11/24 06:51:48;;;;;;;24.65;10.55;;;;;;;3.73;86.39;102027.67;1747425;81;21593;-70
2021/11/24 06:54:17;;;;;;;20.62;10.40;;;;;;;3.73;86.63;102029.00;1746311;81;21656;-71
2021/11/24 06:56:48;;;;;;;21.65;11.73;;;;;;;3.83;86.55;102038.41;1773986;79;21435;-71
2021/11/24 06:59:14;;;;;;;21.20;10.75;;;;;;;3.89;86.52;102042.48;1787097;79;21134;-71
2021/11/24 07:01:42;;;;;;;21.65;11.08;;;;;;;3.99;86.51;102043.05;1779283;79;21442;-71
2021/11/24 07:04:09;;;;;;;23.12;11.30;;;;;;;4.10;86.29;102045.84;1778544;79;21460;-72
2021/11/24 07:06:36;;;;;;;21.55;12.13;;;;;;;4.19;85.93;102045.49;1773102;79;21119;-72
2021/11/24 07:09:04;;;;;;;22.22;9.90;;;;;;;4.23;85.67;102056.18;1783573;79;21094;-71
2021/11/24 07:11:32;;;;;;;16.77;10.10;;;;;;;4.27;85.06;102053.14;1774032;79;21143;-71
2021/11/24 07:14:00;;;;;;;19.07;10.40;;;;;;;4.20;84.27;102052.58;1779765;79;21078;-72
2021/11/24 07:16:26;;;;;;;23.40;11.75;;;;;;;4.14;84.14;102062.72;1773329;79;20965;-72
2021/11/24 07:18:53;;;;;;;19.52;11.33;;;;;;;4.12;84.56;102060.03;1775908;79;21048;-71
2021/11/24 07:21:20;;;;;;;17.52;9.98;;;;;;;4.18;84.77;102057.89;1777013;79;21067;-71
2021/11/24 07:23:47;;;;;;;17.95;10.03;;;;;;;4.29;85.02;102060.69;1776855;79;21634;-71
2021/11/24 07:26:14;;;;;;;15.32;9.05;;;;;;;4.37;84.35;102064.77;1776189;79;21087;-72
2021/11/24 07:28:41;;;;;;;16.50;9.68;;;;;;;4.42;84.20;102067.03;1766688;79;21341;-61
2021/11/24 07:31:09;;;;;;;22.62;11.43;;;;;;;4.47;84.10;102062.66;1788534;79;21043;-61
2021/11/24 07:33:36;;;;;;;21.20;10.50;;;;;;;4.50;83.95;102062.69;1769711;79;21850;-61
2021/11/24 07:36:04;;;;;;;15.72;9.60;;;;;;;4.54;83.99;102063.20;1772517;79;21943;-61
2021/11/24 07:38:31;;;;;;;16.75;9.78;;;;;;;4.61;83.84;102068.57;1773928;79;21671;-61
2021/11/24 07:40:58;;;;;;;20.95;9.93;;;;;;;4.69;83.95;102069.11;1769502;79;21421;-61
2021/11/24 07:43:25;;;;;;;18.62;10.20;;;;;;;4.74;82.98;102070.47;1774789;79;21108;-61
2021/11/24 07:45:52;;;;;;;21.20;11.20;;;;;;;4.68;81.89;102071.73;1770751;79;21145;-60
2021/11/24 07:48:22;;;;;;;21.87;10.78;;;;;;;4.68;81.89;102071.73;1771708;79;21109;-64
2021/11/24 07:50:49;;;;;;;23.12;11.43;;;;;;;4.64;81.84;102069.93;1773575;79;21051;-61
2021/11/24 07:53:16;;;;;;;17.02;9.25;;;;;;;4.58;81.50;102066.34;1773345;79;21087;-62
2021/11/24 07:55:44;;;;;;;21.85;10.72;;;;;;;4.63;81.70;102065.03;1770264;79;21938;-61
2021/11/24 07:58:14;;;;;;;19.05;10.23;;;;;;;4.65;81.11;102063.73;1770909;79;21077;-71
2021/11/24 08:00:41;;;;;;;15.90;9.30;;;;;;;4.64;81.04;102062.86;1773102;79;21512;-72
2021/11/24 08:03:08;;;;;;;26.37;9.90;;;;;;;4.68;80.91;102063.77;1771799;79;21362;-72
2021/11/24 08:05:36;;;;;;;16.48;8.98;;;;;;;4.68;80.91;102063.77;1771377;79;21548;-62
2021/11/24 08:08:04;;;;;;;21.82;9.55;;;;;;;4.67;80.37;102064.22;1774395;79;21082;-61
2021/11/24 08:10:32;;;;;;;27.60;13.20;;;;;;;4.62;81.07;102054.41;1774003;79;21088;-72
2021/11/24 08:12:59;;;;;;;29.00;13.32;;;;;;;4.62;81.07;102054.41;1772852;79;21650;-72
2021/11/24 08:15:29;;;;;;;18.10;9.35;;;;;;;4.61;81.47;102058.82;1769973;79;21429;-70
2021/11/24 08:17:57;;;;;;;21.90;9.70;;;;;;;4.68;81.25;102066.42;1773415;79;21134;-71
2021/11/24 08:20:25;;;;;;;17.62;8.40;;;;;;;4.73;81.08;102068.69;1769985;79;21419;-60
2021/11/24 08:22:53;;;;;;;13.93;8.45;;;;;;;4.76;80.31;102066.09;1771026;79;21526;-62
2021/11/24 08:25:20;;;;;;;22.00;9.73;;;;;;;4.62;79.75;102067.24;1775702;79;21127;-62
2021/11/24 08:27:48;;;;;;;16.20;8.88;;;;;;;4.54;79.73;102075.16;1770487;79;21078;-60
2021/11/24 08:30:15;;;;;;;16.02;8.30;;;;;;;4.54;79.73;102075.16;1771541;79;21033;-62
2021/11/24 08:32:42;;;;;;;22.05;9.43;;;;;;;4.42;79.88;102075.91;1768519;79;21702;-61
2021/11/24 08:35:10;;;;;;;24.72;8.93;;;;;;;4.33;80.47;102080.21;1770956;79;21532;-63
2021/11/24 08:37:38;;;;;;;20.52;9.20;;;;;;;4.32;80.65;102079.30;1771764;79;21784;-62
2021/11/24 08:40:08;;;;;;;25.60;9.83;;;;;;;4.33;80.92;102074.90;1773718;79;21091;-63
2021/11/24 08:42:36;;;;;;;17.67;8.35;;;;;;;4.35;80.93;102069.16;1771418;79;21482;-61
2021/11/24 08:45:07;;;;;;;26.90;11.03;;;;;;;4.37;80.39;102068.29;1770788;79;21055;-62
2021/11/24 08:47:35;;;;;;;14.78;8.38;;;;;;;4.37;80.39;102068.29;1770974;79;21080;-62
2021/11/24 08:50:03;;;;;;;18.25;8.25;;;;;;;4.48;80.07;102068.88;1769301;79;21182;-63
2021/11/24 08:52:32;;;;;;;17.27;8.63;;;;;;;4.61;79.85;102069.90;1771528;79;21063;-61
2021/11/24 08:54:59;;;;;;;13.88;8.70;;;;;;;4.79;79.47;102064.78;1770943;79;20996;-61
2021/11/24 08:57:26;;;;;;;35.03;11.43;;;;;;;5.15;77.43;102058.02;1759660;79;21091;-63
2021/11/24 08:59:53;;;;;;;18.75;9.15;;;;;;;5.35;76.81;102062.61;1762808;80;21056;-61
2021/11/24 09:02:24;;;;;;;22.52;8.85;;;;;;;5.35;76.81;102062.61;1742006;80;21134;-63
2021/11/24 09:04:50;;;;;;;14.33;7.42;;;;;;;5.44;75.58;102065.36;1741748;81;21044;-61
2021/11/24 09:07:17;;;;;;;19.70;9.43;;;;;;;5.55;74.69;102075.17;1745259;81;21131;-62
2021/11/24 09:09:45;;;;;;;16.05;7.67;;;;;;;5.61;73.05;102073.87;1754351;80;22359;-62
2021/11/24 09:12:12;;;;;;;30.48;8.43;;;;;;;5.59;71.05;102074.31;1736483;81;21046;-62
2021/11/24 09:14:39;;;;;;;11.18;5.92;;;;;;;5.59;71.05;102074.31;1738738;80;21449;-62
2021/11/24 09:17:06;;;;;;;14.33;6.55;;;;;;;5.43;67.40;102079.55;1734354;80;21636;-62
2021/11/24 09:19:33;;;;;;;21.07;7.80;;;;;;;5.33;68.40;102076.34;1740551;81;21521;-63
2021/11/24 09:22:01;;;;;;;16.37;6.75;;;;;;;5.32;68.57;102082.53;1766163;80;21079;-61
2021/11/24 09:24:28;;;;;;;11.73;5.00;;;;;;;5.34;68.25;102084.77;1767738;80;21731;-60
2021/11/24 09:27:02;;;;;;;21.62;6.42;;;;;;;5.29;64.89;102091.83;1739558;81;21313;-65
2021/11/24 09:29:27;;;;;;;14.73;5.97;;;;;;;5.22;66.20;102078.91;1765136;79;21578;-62
2021/11/24 09:31:55;;;;;;;15.98;6.33;;;;;;;5.20;66.40;102075.80;1742050;81;21501;-61
2021/11/24 09:34:23;;;;;;;11.70;6.17;;;;;;;5.19;66.98;102080.22;1762050;80;21090;-62
2021/11/24 09:36:50;;;;;;;13.10;5.50;;;;;;;5.24;67.71;102073.62;1741703;81;21206;-60
2021/11/24 09:39:17;;;;;;;10.35;6.20;;;;;;;5.28;65.88;102072.76;1767913;80;22235;-60
2021/11/24 09:41:45;;;;;;;30.47;5.93;;;;;;;5.30;66.44;102082.97;1766795;79;21122;-62
2021/11/24 09:44:12;;;;;;;16.35;5.50;;;;;;;5.34;65.69;102082.11;1762704;80;21108;-60
2021/11/24 09:46:47;;;;;;;21.55;6.60;;;;;;;5.43;64.35;102083.53;1766676;80;21051;-60
2021/11/24 09:49:16;;;;;;;19.85;7.00;;;;;;;5.47;63.07;102077.77;1764050;79;21690;-62
2021/11/24 09:51:43;;;;;;;12.55;5.58;;;;;;;5.46;62.90;102083.97;1768332;80;21120;-60
2021/11/24 09:54:12;;;;;;;9.13;4.53;;;;;;;5.49;62.03;102077.80;1730656;81;21092;-60
2021/11/24 09:56:41;;;;;;;14.90;4.28;;;;;;;5.52;61.50;102085.80;1738904;80;20995;-60
2021/11/24 09:59:08;;;;;;;8.30;3.62;;;;;;;5.52;59.47;102091.99;1740862;81;21096;-60
2021/11/24 10:01:38;;;;;;;13.75;4.33;;;;;;;5.52;59.47;102091.99;1739591;79;21543;-60
2021/11/24 10:04:05;;;;;;;6.87;3.83;;;;;;;5.54;59.14;102089.36;1740468;81;21741;-62
2021/11/24 10:06:34;;;;;;;10.00;2.83;;;;;;;5.57;58.82;102100.02;1741313;81;21098;-71
2021/11/24 10:09:02;;;;;;;11.05;4.12;;;;;;;5.58;56.74;102093.81;1743433;79;21106;-61
2021/11/24 10:11:30;;;;;;;8.95;4.10;;;;;;;5.57;58.46;102095.60;1742582;80;21524;-61
2021/11/24 10:13:59;;;;;;;12.47;4.90;;;;;;;5.61;59.89;102098.28;1738186;81;21376;-62
2021/11/24 10:16:30;;;;;;;15.93;5.97;;;;;;;5.66;60.57;102102.77;1711004;81;21149;-61
2021/11/24 10:19:02;;;;;;;11.38;5.60;;;;;;;5.60;61.37;102102.70;1743526;80;21118;-71
2021/11/24 10:21:29;;;;;;;12.20;5.60;;;;;;;5.53;61.68;102096.89;1746773;80;21662;-72
2021/11/24 10:24:02;;;;;;;10.40;5.83;;;;;;;5.51;61.46;102095.98;1739019;79;21169;-61
2021/11/24 10:26:36;;;;;;;12.85;6.17;;;;;;;5.50;60.89;102092.88;1741442;80;21007;-61
2021/11/24 10:29:11;;;;;;;8.25;4.00;;;;;;;5.54;60.69;102090.69;1743489;81;21856;-62
2021/11/24 10:31:54;;;;;;;8.53;4.00;;;;;;;5.64;58.39;102104.95;1742791;79;21078;-62
2021/11/24 10:34:33;;;;;;;13.25;4.17;;;;;;;5.66;57.98;102094.78;1740341;81;21548;-61
2021/11/24 10:37:09;;;;;;;18.07;3.77;;;;;;;5.71;56.92;102098.36;1738370;81;21071;-61
2021/11/24 10:39:53;;;;;;;8.10;3.72;;;;;;;5.75;56.92;102099.28;1740039;79;20988;-60
2021/11/24 10:42:30;;;;;;;13.53;4.40;;;;;;;5.80;56.43;102088.64;1740344;81;21110;-62
2021/11/24 10:45:14;;;;;;;10.63;5.10;;;;;;;5.88;56.80;102083.82;1736405;81;21501;-71
2021/11/24 10:47:56;;;;;;;22.17;9.85;;;;;;;6.02;56.45;102089.71;1741214;80;21118;-71
2021/11/24 10:50:32;;;;;;;18.32;7.03;;;;;;;6.14;56.41;102091.55;1731002;80;21049;-70
2021/11/24 10:53:00;;;;;;;17.25;6.87;;;;;;;6.28;56.18;102087.16;1761515;80;21098;-71
2021/11/24 10:55:32;;;;;;;14.35;6.30;;;;;;;6.37;56.39;102080.11;1738713;80;21118;-70
2021/11/24 10:58:09;;;;;;;15.50;6.00;;;;;;;6.48;56.42;102086.34;1759729;80;21520;-71
2021/11/24 11:00:38;;;;;;;;;;;;;;;6.51;56.46;102081.02;1754403;80;20963;-71
2021/11/24 11:03:06;;;;;;;14.38;4.45;;;;;;;6.53;56.08;102086.38;1752256;80;20237;-71
2021/11/24 11:05:34;;;;;;;9.43;5.12;;;;;;;6.50;55.82;102095.23;1755820;80;21255;-70
2021/11/24 11:08:06;;;;;;;7.40;4.12;;;;;;;6.49;55.90;102076.14;1757438;80;21764;-71
2021/11/24 11:10:43;;;;;;;12.35;4.53;;;;;;;6.53;55.47;102075.29;1766397;80;21170;-70
2021/11/24 11:13:18;;;;;;;27.02;8.08;;;;;;;6.54;55.69;102075.73;1742175;81;21251;-70
2021/11/24 11:15:48;;;;;;;10.75;4.58;;;;;;;6.57;55.53;102066.41;1740069;81;21884;-71
2021/11/24 11:18:20;;;;;;;10.68;4.67;;;;;;;6.55;55.36;102068.61;1769219;80;21070;-74
2021/11/24 11:21:08;;;;;;;7.53;4.60;;;;;;;6.43;55.24;102074.80;1762379;80;22129;-71
2021/11/24 11:23:43;;;;;;;10.08;4.45;;;;;;;6.24;55.23;102069.39;1767563;80;21044;-70
2021/11/24 11:26:15;;;;;;;9.03;4.12;;;;;;;6.08;55.64;102063.11;1740281;81;21113;-71
2021/11/24 11:28:47;;;;;;;21.17;8.13;;;;;;;6.06;56.17;102067.97;1737560;81;21023;-69